Terminal Aerodrome Forecast
Issued by NWS

Home | Current Version | Previous Version | Text Only | Print | Product List | Glossary On
Versions: 1 2 3 4 5 6 7 8 9 10 11 12 13 14 15 16 17 18 19 20 21 22 23 24 25
209
FTUS45 KLKN 291720
TAFTPH
TAF
KTPH 291720Z 2918/3018 VRB06KT P6SM FEW120 SCT150
     FM292000 22010G20KT P6SM VCTS SCT120CB SCT150
     FM300100 32010G20KT P6SM VCTS BKN120CB
     FM300500 36007KT P6SM BKN120
     FM300900 02006KT P6SM SCT120=

USA.gov is the U.S. government's official web portal to all federal, state and local government web resources and services.